sensor_id;sensor_type;location;lat;lon;timestamp;pressure;altitude;pressure_sealevel;temperature
60936;BMP280;46804;51.786;19.520;2023-02-20T00:02:05;154292.78;;;0.61
60936;BMP280;46804;51.786;19.520;2023-02-20T00:06:06;154304.25;;;0.65
60936;BMP280;46804;51.786;19.520;2023-02-20T00:10:07;154309.34;;;0.67
60936;BMP280;46804;51.786;19.520;2023-02-20T00:14:08;154309.34;;;0.67
60936;BMP280;46804;51.786;19.520;2023-02-20T00:18:09;154325.88;;;0.73
60936;BMP280;46804;51.786;19.520;2023-02-20T00:22:10;154314.44;;;0.69
60936;BMP280;46804;51.786;19.520;2023-02-20T00:26:12;154323.38;;;0.72
60936;BMP280;46804;51.786;19.520;2023-02-20T00:30:15;154332.25;;;0.76
60936;BMP280;46804;51.786;19.520;2023-02-20T00:34:16;154328.47;;;0.74
60936;BMP280;46804;51.786;19.520;2023-02-20T00:38:17;154323.38;;;0.72
60936;BMP280;46804;51.786;19.520;2023-02-20T00:42:18;154324.63;;;0.73
60936;BMP280;46804;51.786;19.520;2023-02-20T00:46:19;154346.28;;;0.81
60936;BMP280;46804;51.786;19.520;2023-02-20T00:50:20;154341.19;;;0.79
60936;BMP280;46804;51.786;19.520;2023-02-20T00:54:21;154350.13;;;0.83
60936;BMP280;46804;51.786;19.520;2023-02-20T00:58:21;154318.25;;;0.70
60936;BMP280;46804;51.786;19.520;2023-02-20T01:02:22;154347.53;;;0.82
60936;BMP280;46804;51.786;19.520;2023-02-20T01:06:23;154311.91;;;0.68
60936;BMP280;46804;51.786;19.520;2023-02-20T01:10:24;154338.66;;;0.78
60936;BMP280;46804;51.786;19.520;2023-02-20T01:14:24;154332.25;;;0.76
60936;BMP280;46804;51.786;19.520;2023-02-20T01:18:25;154306.81;;;0.66
60936;BMP280;46804;51.786;19.520;2023-02-20T01:22:25;154300.44;;;0.64
60936;BMP280;46804;51.786;19.520;2023-02-20T01:26:26;154309.34;;;0.67
60936;BMP280;46804;51.786;19.520;2023-02-20T01:30:27;154304.25;;;0.65
60936;BMP280;46804;51.786;19.520;2023-02-20T01:34:28;154305.56;;;0.66
60936;BMP280;46804;51.786;19.520;2023-02-20T01:38:28;154292.78;;;0.61
60936;BMP280;46804;51.786;19.520;2023-02-20T01:42:31;154287.69;;;0.59
60936;BMP280;46804;51.786;19.520;2023-02-20T01:50:41;154259.69;;;0.48
60936;BMP280;46804;51.786;19.520;2023-02-20T01:54:47;154254.63;;;0.46
60936;BMP280;46804;51.786;19.520;2023-02-20T01:58:49;154269.88;;;0.52
60936;BMP280;46804;51.786;19.520;2023-02-20T02:03:04;154271.19;;;0.52
60936;BMP280;46804;51.786;19.520;2023-02-20T02:07:05;154276.22;;;0.54
60936;BMP280;46804;51.786;19.520;2023-02-20T02:11:18;154283.91;;;0.57
60936;BMP280;46804;51.786;19.520;2023-02-20T02:15:21;154277.53;;;0.55
60936;BMP280;46804;51.786;19.520;2023-02-20T02:19:47;154271.19;;;0.52
60936;BMP280;46804;51.786;19.520;2023-02-20T02:32:37;154290.25;;;0.60
60936;BMP280;46804;51.786;19.520;2023-02-20T02:45:52;154309.34;;;0.67
60936;BMP280;46804;51.786;19.520;2023-02-20T02:50:02;154294.09;;;0.61
60936;BMP280;46804;51.786;19.520;2023-02-20T02:54:11;154295.34;;;0.62
60936;BMP280;46804;51.786;19.520;2023-02-20T02:58:12;154285.16;;;0.58
60936;BMP280;46804;51.786;19.520;2023-02-20T03:02:16;154271.19;;;0.52
60936;BMP280;46804;51.786;19.520;2023-02-20T03:06:24;154282.63;;;0.57
60936;BMP280;46804;51.786;19.520;2023-02-20T03:10:28;154274.97;;;0.54
60936;BMP280;46804;51.786;19.520;2023-02-20T03:14:37;154276.22;;;0.54
60936;BMP280;46804;51.786;19.520;2023-02-20T03:19:00;154264.78;;;0.50
60936;BMP280;46804;51.786;19.520;2023-02-20T03:23:03;154246.97;;;0.43
60936;BMP280;46804;51.786;19.520;2023-02-20T03:27:05;154257.16;;;0.47
60936;BMP280;46804;51.786;19.520;2023-02-20T03:31:11;154268.59;;;0.51
60936;BMP280;46804;51.786;19.520;2023-02-20T03:35:15;154269.88;;;0.52
60936;BMP280;46804;51.786;19.520;2023-02-20T03:39:39;154281.31;;;0.56
60936;BMP280;46804;51.786;19.520;2023-02-20T03:43:59;154269.88;;;0.52
60936;BMP280;46804;51.786;19.520;2023-02-20T03:48:03;154269.88;;;0.52
60936;BMP280;46804;51.786;19.520;2023-02-20T03:52:05;154273.72;;;0.53
60936;BMP280;46804;51.786;19.520;2023-02-20T03:56:09;154277.53;;;0.55
60936;BMP280;46804;51.786;19.520;2023-02-20T04:00:21;154297.88;;;0.63
60936;BMP280;46804;51.786;19.520;2023-02-20T04:04:29;154299.19;;;0.63
60936;BMP280;46804;51.786;19.520;2023-02-20T04:08:53;154309.34;;;0.67
60936;BMP280;46804;51.786;19.520;2023-02-20T04:12:54;154315.69;;;0.69
60936;BMP280;46804;51.786;19.520;2023-02-20T04:17:02;154345.03;;;0.81
60936;BMP280;46804;51.786;19.520;2023-02-20T04:21:10;154350.13;;;0.83
60936;BMP280;46804;51.786;19.520;2023-02-20T04:25:33;154348.81;;;0.82
60936;BMP280;46804;51.786;19.520;2023-02-20T04:29:35;154359.00;;;0.86
60936;BMP280;46804;51.786;19.520;2023-02-20T04:33:37;154367.94;;;0.90
60936;BMP280;46804;51.786;19.520;2023-02-20T04:37:38;154403.56;;;1.03
60936;BMP280;46804;51.786;19.520;2023-02-20T04:41:38;154397.22;;;1.01
60936;BMP280;46804;51.786;19.520;2023-02-20T04:45:39;154387.00;;;0.97
60936;BMP280;46804;51.786;19.520;2023-02-20T04:49:40;154406.16;;;1.04
60936;BMP280;46804;51.786;19.520;2023-02-20T04:53:40;154409.94;;;1.06
60936;BMP280;46804;51.786;19.520;2023-02-20T04:57:41;154409.94;;;1.06
60936;BMP280;46804;51.786;19.520;2023-02-20T05:01:42;154412.50;;;1.07
60936;BMP280;46804;51.786;19.520;2023-02-20T05:05:47;154425.22;;;1.12
60936;BMP280;46804;51.786;19.520;2023-02-20T05:09:48;154412.50;;;1.07
60936;BMP280;46804;51.786;19.520;2023-02-20T05:13:48;154423.97;;;1.11
60936;BMP280;46804;51.786;19.520;2023-02-20T05:17:49;154437.97;;;1.17
60936;BMP280;46804;51.786;19.520;2023-02-20T05:21:50;154430.34;;;1.14
60936;BMP280;46804;51.786;19.520;2023-02-20T05:26:10;154425.22;;;1.12
60936;BMP280;46804;51.786;19.520;2023-02-20T05:30:11;154435.44;;;1.16
60936;BMP280;46804;51.786;19.520;2023-02-20T05:34:12;154427.75;;;1.13
60936;BMP280;46804;51.786;19.520;2023-02-20T05:38:16;154445.63;;;1.20
60936;BMP280;46804;51.786;19.520;2023-02-20T05:42:18;154449.41;;;1.21
60936;BMP280;46804;51.786;19.520;2023-02-20T05:46:18;154441.81;;;1.18
60936;BMP280;46804;51.786;19.520;2023-02-20T05:50:19;154440.53;;;1.18
60936;BMP280;46804;51.786;19.520;2023-02-20T05:54:20;154452.00;;;1.22
60936;BMP280;46804;51.786;19.520;2023-02-20T05:58:21;154453.25;;;1.23
60936;BMP280;46804;51.786;19.520;2023-02-20T06:02:22;154460.88;;;1.26
60936;BMP280;46804;51.786;19.520;2023-02-20T06:06:22;154458.34;;;1.25
60936;BMP280;46804;51.786;19.520;2023-02-20T06:10:23;154487.66;;;1.36
60936;BMP280;46804;51.786;19.520;2023-02-20T06:14:25;154504.22;;;1.42
60936;BMP280;46804;51.786;19.520;2023-02-20T06:18:26;154511.84;;;1.45
60936;BMP280;46804;51.786;19.520;2023-02-20T06:22:26;154511.84;;;1.45
60936;BMP280;46804;51.786;19.520;2023-02-20T06:26:27;154525.88;;;1.51
60936;BMP280;46804;51.786;19.520;2023-02-20T06:30:28;154553.91;;;1.62
60936;BMP280;46804;51.786;19.520;2023-02-20T06:34:29;154573.00;;;1.69
60936;BMP280;46804;51.786;19.520;2023-02-20T06:38:32;154569.22;;;1.68
60936;BMP280;46804;51.786;19.520;2023-02-20T06:42:33;154598.50;;;1.79
60936;BMP280;46804;51.786;19.520;2023-02-20T06:46:33;154616.34;;;1.86
60936;BMP280;46804;51.786;19.520;2023-02-20T06:50:34;154627.81;;;1.90
60936;BMP280;46804;51.786;19.520;2023-02-20T06:54:35;154640.53;;;1.95
60936;BMP280;46804;51.786;19.520;2023-02-20T06:58:36;154646.91;;;1.98
60936;BMP280;46804;51.786;19.520;2023-02-20T07:02:37;154657.13;;;2.02
60936;BMP280;46804;51.786;19.520;2023-02-20T07:06:38;154687.75;;;2.13
60936;BMP280;46804;51.786;19.520;2023-02-20T07:10:38;154714.47;;;2.24
60936;BMP280;46804;51.786;19.520;2023-02-20T07:14:39;154725.94;;;2.28
60936;BMP280;46804;51.786;19.520;2023-02-20T07:18:40;154741.25;;;2.34
60936;BMP280;46804;51.786;19.520;2023-02-20T07:22:48;154750.19;;;2.37
60936;BMP280;46804;51.786;19.520;2023-02-20T07:26:49;154762.94;;;2.42
60936;BMP280;46804;51.786;19.520;2023-02-20T07:30:50;154778.25;;;2.48
60936;BMP280;46804;51.786;19.520;2023-02-20T07:34:51;154857.31;;;2.79
60936;BMP280;46804;51.786;19.520;2023-02-20T07:38:56;154880.28;;;2.88
60936;BMP280;46804;51.786;19.520;2023-02-20T07:42:57;154924.91;;;3.05
60936;BMP280;46804;51.786;19.520;2023-02-20T07:46:57;154921.09;;;3.03
60936;BMP280;46804;51.786;19.520;2023-02-20T07:50:58;154882.81;;;2.89
60936;BMP280;46804;51.786;19.520;2023-02-20T07:54:59;154881.53;;;2.88
60936;BMP280;46804;51.786;19.520;2023-02-20T07:58:59;154885.38;;;2.90
60936;BMP280;46804;51.786;19.520;2023-02-20T08:03:00;154909.59;;;2.99
60936;BMP280;46804;51.786;19.520;2023-02-20T08:07:01;154933.81;;;3.08
60936;BMP280;46804;51.786;19.520;2023-02-20T08:11:02;154907.06;;;2.98
60936;BMP280;46804;51.786;19.520;2023-02-20T08:15:03;154958.09;;;3.18
60936;BMP280;46804;51.786;19.520;2023-02-20T08:19:03;154914.72;;;3.01
60936;BMP280;46804;51.786;19.520;2023-02-20T08:23:04;154941.50;;;3.11
60936;BMP280;46804;51.786;19.520;2023-02-20T08:27:05;154982.31;;;3.27
60936;BMP280;46804;51.786;19.520;2023-02-20T08:31:06;154987.44;;;3.29
60936;BMP280;46804;51.786;19.520;2023-02-20T08:35:07;154942.78;;;3.12
60936;BMP280;46804;51.786;19.520;2023-02-20T08:39:07;154958.09;;;3.18
60936;BMP280;46804;51.786;19.520;2023-02-20T08:43:08;154969.56;;;3.22
60936;BMP280;46804;51.786;19.520;2023-02-20T08:47:09;154898.13;;;2.95
60936;BMP280;46804;51.786;19.520;2023-02-20T08:51:10;154927.44;;;3.06
60936;BMP280;46804;51.786;19.520;2023-02-20T08:55:11;154926.19;;;3.05
60936;BMP280;46804;51.786;19.520;2023-02-20T08:59:12;154924.91;;;3.05
60936;BMP280;46804;51.786;19.520;2023-02-20T09:03:13;154879.00;;;2.87
60936;BMP280;46804;51.786;19.520;2023-02-20T09:07:13;154872.59;;;2.85
60936;BMP280;46804;51.786;19.520;2023-02-20T09:11:14;154867.53;;;2.83
60936;BMP280;46804;51.786;19.520;2023-02-20T09:15:15;154843.25;;;2.73
60936;BMP280;46804;51.786;19.520;2023-02-20T09:19:17;154796.09;;;2.55
60936;BMP280;46804;51.786;19.520;2023-02-20T09:23:18;154769.31;;;2.45
60936;BMP280;46804;51.786;19.520;2023-02-20T09:27:21;154764.19;;;2.43
60936;BMP280;46804;51.786;19.520;2023-02-20T09:31:21;154759.09;;;2.41
60936;BMP280;46804;51.786;19.520;2023-02-20T09:35:25;154718.31;;;2.25
60936;BMP280;46804;51.786;19.520;2023-02-20T09:39:26;154725.94;;;2.28
60936;BMP280;46804;51.786;19.520;2023-02-20T09:43:51;154725.94;;;2.28
60936;BMP280;46804;51.786;19.520;2023-02-20T09:48:10;154718.31;;;2.25
60936;BMP280;46804;51.786;19.520;2023-02-20T09:52:16;154733.63;;;2.31
60936;BMP280;46804;51.786;19.520;2023-02-20T09:56:24;154746.38;;;2.36
60936;BMP280;46804;51.786;19.520;2023-02-20T10:00:29;154738.72;;;2.33
60936;BMP280;46804;51.786;19.520;2023-02-20T10:04:40;154759.09;;;2.41
60936;BMP280;46804;51.786;19.520;2023-02-20T10:08:42;154778.25;;;2.48
60936;BMP280;46804;51.786;19.520;2023-02-20T10:13:00;154762.94;;;2.42
60936;BMP280;46804;51.786;19.520;2023-02-20T10:21:37;154752.72;;;2.38
60936;BMP280;46804;51.786;19.520;2023-02-20T10:25:42;154764.19;;;2.43
60936;BMP280;46804;51.786;19.520;2023-02-20T10:29:45;154801.19;;;2.57
60936;BMP280;46804;51.786;19.520;2023-02-20T10:33:52;154803.72;;;2.58
60936;BMP280;46804;51.786;19.520;2023-02-20T10:37:56;154847.09;;;2.75
60936;BMP280;46804;51.786;19.520;2023-02-20T10:42:09;154858.59;;;2.79
60936;BMP280;46804;51.786;19.520;2023-02-20T10:46:36;154889.16;;;2.91
60936;BMP280;46804;51.786;19.520;2023-02-20T10:54:50;154974.69;;;3.24
60936;BMP280;46804;51.786;19.520;2023-02-20T10:59:04;154991.28;;;3.31
60936;BMP280;46804;51.786;19.520;2023-02-20T11:03:11;155005.28;;;3.36
60936;BMP280;46804;51.786;19.520;2023-02-20T11:07:15;155025.72;;;3.44
60936;BMP280;46804;51.786;19.520;2023-02-20T11:11:27;155048.69;;;3.53
60936;BMP280;46804;51.786;19.520;2023-02-20T11:15:31;155049.97;;;3.53
60936;BMP280;46804;51.786;19.520;2023-02-20T11:19:39;155067.81;;;3.60
60936;BMP280;46804;51.786;19.520;2023-02-20T11:23:42;155078.03;;;3.64
60936;BMP280;46804;51.786;19.520;2023-02-20T11:27:46;155093.38;;;3.70
60936;BMP280;46804;51.786;19.520;2023-02-20T11:31:47;155108.66;;;3.76
60936;BMP280;46804;51.786;19.520;2023-02-20T11:35:55;155116.34;;;3.79
60936;BMP280;46804;51.786;19.520;2023-02-20T11:39:58;155136.72;;;3.87
60936;BMP280;46804;51.786;19.520;2023-02-20T11:44:06;155148.22;;;3.91
60936;BMP280;46804;51.786;19.520;2023-02-20T11:48:18;155150.81;;;3.92
60936;BMP280;46804;51.786;19.520;2023-02-20T11:52:21;155172.50;;;4.01
60936;BMP280;46804;51.786;19.520;2023-02-20T11:56:22;155192.91;;;4.08
60936;BMP280;46804;51.786;19.520;2023-02-20T12:00:26;155213.34;;;4.16
60936;BMP280;46804;51.786;19.520;2023-02-20T12:04:27;155249.09;;;4.30
60936;BMP280;46804;51.786;19.520;2023-02-20T12:12:37;155293.78;;;4.47
60936;BMP280;46804;51.786;19.520;2023-02-20T12:17:11;155315.53;;;4.56
60936;BMP280;46804;51.786;19.520;2023-02-20T12:21:22;155348.75;;;4.69
60936;BMP280;46804;51.786;19.520;2023-02-20T12:29:41;155406.22;;;4.91
60936;BMP280;46804;51.786;19.520;2023-02-20T12:51:13;155592.81;;;5.63
60936;BMP280;46804;51.786;19.520;2023-02-20T12:59:57;155647.84;;;5.84
60936;BMP280;46804;51.786;19.520;2023-02-20T13:04:16;155690.00;;;6.00
60936;BMP280;46804;51.786;19.520;2023-02-20T13:08:26;155727.13;;;6.14
60936;BMP280;46804;51.786;19.520;2023-02-20T13:12:27;155765.50;;;6.29
60936;BMP280;46804;51.786;19.520;2023-02-20T13:21:01;155825.59;;;6.52
60936;BMP280;46804;51.786;19.520;2023-02-20T13:25:39;155832.03;;;6.55
60936;BMP280;46804;51.786;19.520;2023-02-20T13:30:08;155848.66;;;6.61
60936;BMP280;46804;51.786;19.520;2023-02-20T13:38:13;155869.09;;;6.69
60936;BMP280;46804;51.786;19.520;2023-02-20T13:42:31;155881.88;;;6.74
60936;BMP280;46804;51.786;19.520;2023-02-20T13:46:56;155901.13;;;6.81
60936;BMP280;46804;51.786;19.520;2023-02-20T13:55:24;155922.88;;;6.90
60936;BMP280;46804;51.786;19.520;2023-02-20T13:59:27;155924.13;;;6.90
60936;BMP280;46804;51.786;19.520;2023-02-20T14:03:30;155953.56;;;7.02
60936;BMP280;46804;51.786;19.520;2023-02-20T14:07:33;155959.94;;;7.04
60936;BMP280;46804;51.786;19.520;2023-02-20T14:11:38;155965.06;;;7.06
60936;BMP280;46804;51.786;19.520;2023-02-20T14:15:51;155983.00;;;7.13
60936;BMP280;46804;51.786;19.520;2023-02-20T14:19:58;155989.38;;;7.15
60936;BMP280;46804;51.786;19.520;2023-02-20T14:24:15;155995.81;;;7.18
60936;BMP280;46804;51.786;19.520;2023-02-20T14:28:17;156020.13;;;7.27
60936;BMP280;46804;51.786;19.520;2023-02-20T14:32:18;156040.63;;;7.35
60936;BMP280;46804;51.786;19.520;2023-02-20T14:36:41;156047.03;;;7.38
60936;BMP280;46804;51.786;19.520;2023-02-20T14:40:44;156044.44;;;7.37
60936;BMP280;46804;51.786;19.520;2023-02-20T14:44:50;156079.00;;;7.50
60936;BMP280;46804;51.786;19.520;2023-02-20T14:49:12;156108.50;;;7.61
60936;BMP280;46804;51.786;19.520;2023-02-20T14:53:15;156126.41;;;7.68
60936;BMP280;46804;51.786;19.520;2023-02-20T14:57:16;156122.56;;;7.67
60936;BMP280;46804;51.786;19.520;2023-02-20T15:01:31;156134.06;;;7.71
60936;BMP280;46804;51.786;19.520;2023-02-20T15:05:40;156157.13;;;7.80
60936;BMP280;46804;51.786;19.520;2023-02-20T15:09:43;156160.97;;;7.81
60936;BMP280;46804;51.786;19.520;2023-02-20T15:13:45;156167.38;;;7.84
60936;BMP280;46804;51.786;19.520;2023-02-20T15:17:46;156168.63;;;7.84
60936;BMP280;46804;51.786;19.520;2023-02-20T15:21:55;156172.50;;;7.86
60936;BMP280;46804;51.786;19.520;2023-02-20T15:25:57;156185.28;;;7.91
60936;BMP280;46804;51.786;19.520;2023-02-20T15:30:18;156185.28;;;7.91
60936;BMP280;46804;51.786;19.520;2023-02-20T15:34:25;156175.03;;;7.87
60936;BMP280;46804;51.786;19.520;2023-02-20T15:38:29;156181.44;;;7.89
60936;BMP280;46804;51.786;19.520;2023-02-20T15:42:30;156180.16;;;7.89
60936;BMP280;46804;51.786;19.520;2023-02-20T15:46:31;156182.75;;;7.90
60936;BMP280;46804;51.786;19.520;2023-02-20T15:50:32;156184.03;;;7.90
60936;BMP280;46804;51.786;19.520;2023-02-20T15:54:33;156190.41;;;7.93
60936;BMP280;46804;51.786;19.520;2023-02-20T15:58:36;156185.28;;;7.91
60936;BMP280;46804;51.786;19.520;2023-02-20T16:02:38;156168.63;;;7.84
60936;BMP280;46804;51.786;19.520;2023-02-20T16:06:38;156176.34;;;7.87
60936;BMP280;46804;51.786;19.520;2023-02-20T16:10:39;156185.28;;;7.91
60936;BMP280;46804;51.786;19.520;2023-02-20T16:14:40;156173.75;;;7.86
60936;BMP280;46804;51.786;19.520;2023-02-20T16:18:40;156192.94;;;7.94
60936;BMP280;46804;51.786;19.520;2023-02-20T16:22:41;156200.69;;;7.97
60936;BMP280;46804;51.786;19.520;2023-02-20T16:26:45;156191.69;;;7.93
60936;BMP280;46804;51.786;19.520;2023-02-20T16:30:47;156218.59;;;8.04
60936;BMP280;46804;51.786;19.520;2023-02-20T16:34:50;156195.53;;;7.95
60936;BMP280;46804;51.786;19.520;2023-02-20T16:38:51;156209.59;;;8.00
60936;BMP280;46804;51.786;19.520;2023-02-20T16:42:51;156222.44;;;8.05
60936;BMP280;46804;51.786;19.520;2023-02-20T16:46:52;156232.75;;;8.09
60936;BMP280;46804;51.786;19.520;2023-02-20T16:50:53;156241.69;;;8.13
60936;BMP280;46804;51.786;19.520;2023-02-20T16:54:54;156248.09;;;8.15
60936;BMP280;46804;51.786;19.520;2023-02-20T16:58:55;156266.03;;;8.22
60936;BMP280;46804;51.786;19.520;2023-02-20T17:02:58;156272.47;;;8.24
60936;BMP280;46804;51.786;19.520;2023-02-20T17:06:59;156282.69;;;8.28
60936;BMP280;46804;51.786;19.520;2023-02-20T17:11:00;156264.75;;;8.21
60936;BMP280;46804;51.786;19.520;2023-02-20T17:15:00;156257.09;;;8.18
60936;BMP280;46804;51.786;19.520;2023-02-20T17:19:02;156273.75;;;8.25
60936;BMP280;46804;51.786;19.520;2023-02-20T17:23:03;156264.75;;;8.21
60936;BMP280;46804;51.786;19.520;2023-02-20T17:27:04;156255.81;;;8.18
60936;BMP280;46804;51.786;19.520;2023-02-20T17:31:05;156259.63;;;8.19
60936;BMP280;46804;51.786;19.520;2023-02-20T17:35:07;156272.47;;;8.24
60936;BMP280;46804;51.786;19.520;2023-02-20T17:39:08;156269.88;;;8.23
60936;BMP280;46804;51.786;19.520;2023-02-20T17:43:08;156282.69;;;8.28
60936;BMP280;46804;51.786;19.520;2023-02-20T17:47:11;156273.75;;;8.25
60936;BMP280;46804;51.786;19.520;2023-02-20T17:51:17;156285.25;;;8.29
60936;BMP280;46804;51.786;19.520;2023-02-20T17:55:21;156286.53;;;8.30
60936;BMP280;46804;51.786;19.520;2023-02-20T17:59:22;156291.66;;;8.32
60936;BMP280;46804;51.786;19.520;2023-02-20T18:03:23;156300.66;;;8.35
60936;BMP280;46804;51.786;19.520;2023-02-20T18:07:24;156290.41;;;8.31
60936;BMP280;46804;51.786;19.520;2023-02-20T18:11:25;156289.06;;;8.31
60936;BMP280;46804;51.786;19.520;2023-02-20T18:15:34;156275.00;;;8.25
60936;BMP280;46804;51.786;19.520;2023-02-20T18:19:35;156263.47;;;8.21
60936;BMP280;46804;51.786;19.520;2023-02-20T18:23:36;156263.47;;;8.21
60936;BMP280;46804;51.786;19.520;2023-02-20T18:27:37;156260.94;;;8.20
60936;BMP280;46804;51.786;19.520;2023-02-20T18:31:38;156262.22;;;8.20
60936;BMP280;46804;51.786;19.520;2023-02-20T18:35:38;156249.38;;;8.15
60936;BMP280;46804;51.786;19.520;2023-02-20T18:39:42;156253.22;;;8.17
60936;BMP280;46804;51.786;19.520;2023-02-20T18:43:45;156237.84;;;8.11
60936;BMP280;46804;51.786;19.520;2023-02-20T18:47:52;156245.56;;;8.14
60936;BMP280;46804;51.786;19.520;2023-02-20T18:51:54;156235.31;;;8.10
60936;BMP280;46804;51.786;19.520;2023-02-20T18:55:55;156236.56;;;8.11
60936;BMP280;46804;51.786;19.520;2023-02-20T18:59:56;156222.44;;;8.05
60936;BMP280;46804;51.786;19.520;2023-02-20T19:03:56;156226.25;;;8.07
60936;BMP280;46804;51.786;19.520;2023-02-20T19:07:57;156226.25;;;8.07
60936;BMP280;46804;51.786;19.520;2023-02-20T19:11:58;156207.06;;;7.99
60936;BMP280;46804;51.786;19.520;2023-02-20T19:15:59;156236.56;;;8.11
60936;BMP280;46804;51.786;19.520;2023-02-20T19:20:01;156226.25;;;8.07
60936;BMP280;46804;51.786;19.520;2023-02-20T19:24:01;156209.59;;;8.00
60936;BMP280;46804;51.786;19.520;2023-02-20T19:28:03;156192.94;;;7.94
60936;BMP280;46804;51.786;19.520;2023-02-20T19:32:04;156191.69;;;7.93
60936;BMP280;46804;51.786;19.520;2023-02-20T19:36:05;156182.75;;;7.90
60936;BMP280;46804;51.786;19.520;2023-02-20T19:40:06;156187.88;;;7.92
60936;BMP280;46804;51.786;19.520;2023-02-20T19:44:12;156186.56;;;7.91
60936;BMP280;46804;51.786;19.520;2023-02-20T19:48:14;156205.81;;;7.99
60936;BMP280;46804;51.786;19.520;2023-02-20T19:52:15;156176.34;;;7.87
60936;BMP280;46804;51.786;19.520;2023-02-20T19:56:16;156175.03;;;7.87
60936;BMP280;46804;51.786;19.520;2023-02-20T20:00:18;156153.25;;;7.78
60936;BMP280;46804;51.786;19.520;2023-02-20T20:04:20;156118.69;;;7.65
60936;BMP280;46804;51.786;19.520;2023-02-20T20:08:21;156112.28;;;7.63
60936;BMP280;46804;51.786;19.520;2023-02-20T20:12:22;156098.22;;;7.57
60936;BMP280;46804;51.786;19.520;2023-02-20T20:16:41;156086.72;;;7.53
60936;BMP280;46804;51.786;19.520;2023-02-20T20:20:43;156080.31;;;7.50
60936;BMP280;46804;51.786;19.520;2023-02-20T20:24:44;156072.59;;;7.47
60936;BMP280;46804;51.786;19.520;2023-02-20T20:28:44;156066.22;;;7.45
60936;BMP280;46804;51.786;19.520;2023-02-20T20:32:46;156067.47;;;7.45
60936;BMP280;46804;51.786;19.520;2023-02-20T20:36:49;156086.72;;;7.53
60936;BMP280;46804;51.786;19.520;2023-02-20T20:40:49;156052.16;;;7.40
60936;BMP280;46804;51.786;19.520;2023-02-20T20:44:52;156044.44;;;7.37
60936;BMP280;46804;51.786;19.520;2023-02-20T20:48:53;156034.19;;;7.33
60936;BMP280;46804;51.786;19.520;2023-02-20T20:52:53;156034.19;;;7.33
60936;BMP280;46804;51.786;19.520;2023-02-20T20:56:54;156025.25;;;7.29
60936;BMP280;46804;51.786;19.520;2023-02-20T21:00:55;156036.78;;;7.34
60936;BMP280;46804;51.786;19.520;2023-02-20T21:04:56;156026.53;;;7.30
60936;BMP280;46804;51.786;19.520;2023-02-20T21:08:56;156018.88;;;7.27
60936;BMP280;46804;51.786;19.520;2023-02-20T21:12:57;156020.13;;;7.27
60936;BMP280;46804;51.786;19.520;2023-02-20T21:16:58;156016.28;;;7.26
60936;BMP280;46804;51.786;19.520;2023-02-20T21:20:58;156011.16;;;7.24
60936;BMP280;46804;51.786;19.520;2023-02-20T21:24:59;156023.97;;;7.29
60936;BMP280;46804;51.786;19.520;2023-02-20T21:29:00;156036.78;;;7.34
60936;BMP280;46804;51.786;19.520;2023-02-20T21:33:01;156041.91;;;7.36
60936;BMP280;46804;51.786;19.520;2023-02-20T21:37:02;156031.66;;;7.32
60936;BMP280;46804;51.786;19.520;2023-02-20T21:41:03;156054.69;;;7.41
60936;BMP280;46804;51.786;19.520;2023-02-20T21:45:04;156038.03;;;7.34
60936;BMP280;46804;51.786;19.520;2023-02-20T21:49:05;156040.63;;;7.35
60936;BMP280;46804;51.786;19.520;2023-02-20T21:53:05;156036.78;;;7.34
60936;BMP280;46804;51.786;19.520;2023-02-20T21:57:06;156036.78;;;7.34
60936;BMP280;46804;51.786;19.520;2023-02-20T22:01:07;156031.66;;;7.32
60936;BMP280;46804;51.786;19.520;2023-02-20T22:05:08;156021.41;;;7.28
60936;BMP280;46804;51.786;19.520;2023-02-20T22:09:13;156023.97;;;7.29
60936;BMP280;46804;51.786;19.520;2023-02-20T22:13:34;156021.41;;;7.28
60936;BMP280;46804;51.786;19.520;2023-02-20T22:17:53;156036.78;;;7.34
60936;BMP280;46804;51.786;19.520;2023-02-20T22:22:13;156057.22;;;7.42
60936;BMP280;46804;51.786;19.520;2023-02-20T22:26:32;156066.22;;;7.45
60936;BMP280;46804;51.786;19.520;2023-02-20T22:30:51;156068.81;;;7.46
60936;BMP280;46804;51.786;19.520;2023-02-20T22:35:12;156077.72;;;7.49
60936;BMP280;46804;51.786;19.520;2023-02-20T22:39:31;156072.59;;;7.47
60936;BMP280;46804;51.786;19.520;2023-02-20T22:43:51;156091.84;;;7.55
60936;BMP280;46804;51.786;19.520;2023-02-20T22:48:10;156080.31;;;7.50
60936;BMP280;46804;51.786;19.520;2023-02-20T22:52:29;156093.09;;;7.55
60936;BMP280;46804;51.786;19.520;2023-02-20T22:56:49;156093.09;;;7.55
60936;BMP280;46804;51.786;19.520;2023-02-20T23:01:08;156091.84;;;7.55
60936;BMP280;46804;51.786;19.520;2023-02-20T23:05:27;156061.09;;;7.43
60936;BMP280;46804;51.786;19.520;2023-02-20T23:09:47;156057.22;;;7.42
60936;BMP280;46804;51.786;19.520;2023-02-20T23:14:06;156038.03;;;7.34
60936;BMP280;46804;51.786;19.520;2023-02-20T23:18:26;156020.13;;;7.27
60936;BMP280;46804;51.786;19.520;2023-02-20T23:22:45;156004.75;;;7.21
60936;BMP280;46804;51.786;19.520;2023-02-20T23:27:05;155988.13;;;7.15
60936;BMP280;46804;51.786;19.520;2023-02-20T23:35:54;155998.38;;;7.19
60936;BMP280;46804;51.786;19.520;2023-02-20T23:40:13;156008.63;;;7.23
60936;BMP280;46804;51.786;19.520;2023-02-20T23:44:32;155993.25;;;7.17
60936;BMP280;46804;51.786;19.520;2023-02-20T23:48:52;155990.69;;;7.16
60936;BMP280;46804;51.786;19.520;2023-02-20T23:53:11;156023.97;;;7.29
60936;BMP280;46804;51.786;19.520;2023-02-20T23:57:31;156011.16;;;7.24
